Time;durP1;ratioP1;P1;durP2;ratioP2;P2;SDS_P1;SDS_P2;PMS_P1;PMS_P2;Temp;Humidity;BMP_temperature;BMP_pressure;BME280_temperature;BME280_humidity;BME280_pressure;Samples;Min_cycle;Max_cycle;Signal;HPM_P1;HPM_P2
2021/12/30 00:01:28;;;;;;;13.80;2.58;;;12.50;99.90;;;12.54;100.00;100634.13;5179562;28;20477;-79
2021/12/30 00:04:00;;;;;;;16.27;2.42;;;12.50;99.90;;;12.55;100.00;100635.00;5177076;28;20048;-79
2021/12/30 00:06:38;;;;;;;14.32;2.47;;;12.50;99.90;;;12.50;100.00;100638.38;5182072;28;20046;-78
2021/12/30 00:09:14;;;;;;;6.68;2.05;;;12.50;99.90;;;12.51;100.00;100639.25;5181920;28;20050;-79
2021/12/30 00:11:46;;;;;;;13.75;2.38;;;12.50;99.90;;;12.50;100.00;100640.13;5179408;28;20154;-79
2021/12/30 00:14:18;;;;;;;13.05;2.10;;;12.50;99.90;;;12.48;100.00;100645.31;5178966;28;20057;-79
2021/12/30 00:16:50;;;;;;;10.02;2.30;;;12.40;99.90;;;12.53;100.00;100653.28;5182019;28;20410;-79
2021/12/30 00:19:22;;;;;;;10.93;2.50;;;12.40;99.90;;;12.52;100.00;100672.44;5174518;28;20058;-78
2021/12/30 00:21:54;;;;;;;16.90;3.00;;;12.40;99.90;;;12.51;100.00;100675.88;5179308;28;20053;-79
2021/12/30 00:24:27;;;;;;;9.95;2.15;;;12.40;99.90;;;12.48;100.00;100675.81;5172680;28;20049;-78
2021/12/30 00:26:59;;;;;;;11.05;2.00;;;12.40;99.90;;;12.46;100.00;100675.78;5177356;28;20046;-79
2021/12/30 00:29:31;;;;;;;11.15;3.42;;;12.40;99.90;;;12.45;100.00;100680.94;5175093;28;20056;-79
2021/12/30 00:32:04;;;;;;;10.65;2.25;;;12.40;99.90;;;12.46;100.00;100687.97;5175959;28;20042;-79
2021/12/30 00:34:36;;;;;;;9.23;2.67;;;12.40;99.90;;;12.44;100.00;100692.25;5177351;28;20050;-79
2021/12/30 00:37:08;;;;;;;12.65;2.30;;;12.40;99.90;;;12.43;100.00;100699.22;5172522;28;20050;-79
2021/12/30 00:39:41;;;;;;;14.43;2.45;;;12.30;99.90;;;12.41;100.00;100690.44;5177012;28;20061;-79
2021/12/30 00:42:13;;;;;;;9.73;1.92;;;12.30;99.90;;;12.40;100.00;100693.91;5182000;28;20056;-79
2021/12/30 00:44:45;;;;;;;11.80;2.45;;;12.30;99.90;;;12.38;100.00;100695.59;5180710;28;20046;-79
2021/12/30 00:47:18;;;;;;;13.07;2.53;;;12.30;99.90;;;12.36;100.00;100701.63;5176928;28;20046;-79
2021/12/30 00:49:52;;;;;;;7.70;2.03;;;12.30;99.90;;;12.34;100.00;100705.94;5180511;28;20068;-79
2021/12/30 00:52:25;;;;;;;23.10;3.17;;;12.20;99.90;;;12.31;100.00;100703.22;5175056;28;20046;-79
2021/12/30 00:54:58;;;;;;;9.93;2.58;;;12.20;99.90;;;12.30;100.00;100706.69;5186559;28;20125;-79
2021/12/30 00:57:30;;;;;;;12.98;2.10;;;12.20;99.90;;;12.27;100.00;100710.13;5186848;28;20054;-78
2021/12/30 01:00:04;;;;;;;6.63;1.88;;;12.20;99.90;;;12.23;100.00;100717.00;5186921;28;20100;-78
2021/12/30 01:02:36;;;;;;;10.18;1.90;;;12.20;99.90;;;12.24;100.00;100725.72;5187029;28;20049;-78
2021/12/30 01:05:10;;;;;;;8.73;2.10;;;12.10;99.90;;;12.26;100.00;100730.97;5186775;28;20046;-80
2021/12/30 01:07:42;;;;;;;9.85;2.65;;;12.10;99.90;;;12.23;100.00;100739.63;5185818;28;20415;-78
2021/12/30 01:10:20;;;;;;;13.35;2.47;;;12.10;99.90;;;12.23;100.00;100737.00;5177590;28;20050;-78
2021/12/30 01:12:53;;;;;;;9.43;2.28;;;12.10;99.90;;;12.21;100.00;100739.59;5176073;28;20053;-78
2021/12/30 01:15:34;;;;;;;8.73;2.10;;;12.10;99.90;;;12.21;100.00;100742.22;5175381;28;20054;-78
2021/12/30 01:18:24;;;;;;;6.82;1.60;;;12.10;99.90;;;12.18;100.00;100742.09;5176034;28;20046;-78
2021/12/30 01:20:58;;;;;;;17.15;2.58;;;12.10;99.90;;;12.15;100.00;100723.75;5176939;28;20050;-78
2021/12/30 01:23:30;;;;;;;11.35;2.47;;;12.10;99.90;;;12.13;100.00;100730.66;5176796;28;20052;-78
2021/12/30 01:26:05;;;;;;;7.90;2.17;;;12.10;99.90;;;12.10;100.00;100730.56;5176475;28;20054;-77
2021/12/30 01:28:38;;;;;;;8.57;2.55;;;12.00;99.90;;;12.10;100.00;100730.56;5176181;28;20081;-77
2021/12/30 01:31:12;;;;;;;7.78;1.73;;;12.00;99.90;;;12.08;100.00;100737.47;5177863;28;20057;-77
2021/12/30 01:33:44;;;;;;;8.02;1.98;;;12.00;99.90;;;12.07;100.00;100738.34;5173971;28;20042;-77
2021/12/30 01:36:17;;;;;;;8.48;2.25;;;12.00;99.90;;;12.05;100.00;100732.16;5166168;28;20085;-77
2021/12/30 01:38:50;;;;;;;11.70;2.55;;;12.00;99.90;;;12.04;100.00;100721.66;5165838;28;20105;-77
2021/12/30 01:41:23;;;;;;;11.45;2.15;;;11.90;99.90;;;12.05;100.00;100726.94;5165628;28;20052;-77
2021/12/30 01:43:55;;;;;;;6.65;1.75;;;11.90;99.90;;;12.03;100.00;100723.41;5165528;28;20054;-77
2021/12/30 01:46:38;;;;;;;9.88;2.22;;;12.00;99.90;;;12.00;100.00;100733.78;5165638;28;20046;-77
2021/12/30 01:49:12;;;;;;;6.95;1.85;;;11.90;99.90;;;12.00;100.00;100739.00;5165816;28;20060;-77
2021/12/30 01:51:45;;;;;;;6.60;1.95;;;11.90;99.90;;;12.01;100.00;100745.13;5165371;28;20448;-77
2021/12/30 01:54:18;;;;;;;9.35;2.33;;;11.90;99.90;;;12.00;100.00;100749.47;5165607;28;20424;-77
2021/12/30 01:56:52;;;;;;;10.15;2.83;;;11.90;99.90;;;12.01;100.00;100756.44;5164224;28;20060;-78
2021/12/30 01:59:25;;;;;;;8.10;2.25;;;11.90;99.90;;;12.01;100.00;100753.84;5167400;28;20058;-77
2021/12/30 02:01:57;;;;;;;9.95;2.42;;;11.90;99.90;;;12.02;100.00;100758.22;5188437;28;20451;-77
2021/12/30 02:04:30;;;;;;;10.20;2.45;;;11.90;99.90;;;12.02;100.00;100755.59;5179132;28;20543;-77
2021/12/30 02:07:03;;;;;;;6.25;1.80;;;11.90;99.90;;;12.01;100.00;100750.34;5174389;28;20056;-77
2021/12/30 02:09:36;;;;;;;7.85;2.10;;;11.90;99.90;;;12.01;100.00;100755.56;5177430;28;20157;-79
2021/12/30 02:12:10;;;;;;;8.00;2.45;;;11.90;99.90;;;12.02;100.00;100755.59;5185616;28;20140;-77
2021/12/30 02:14:42;;;;;;;8.75;2.47;;;11.90;99.90;;;12.03;100.00;100754.75;5185199;28;20061;-77
2021/12/30 02:17:14;;;;;;;8.98;2.13;;;11.90;99.90;;;12.04;100.00;100751.28;5185632;28;20068;-77
2021/12/30 02:19:46;;;;;;;8.85;2.30;;;11.90;99.90;;;12.06;100.00;100749.63;5185877;28;20046;-77
2021/12/30 02:22:19;;;;;;;6.78;1.70;;;11.90;99.90;;;12.06;100.00;100741.78;5185623;28;20527;-77
2021/12/30 02:24:51;;;;;;;7.68;1.90;;;11.90;99.90;;;12.09;100.00;100744.47;5184563;28;20053;-77
2021/12/30 02:27:23;;;;;;;8.02;2.42;;;12.00;99.90;;;12.10;100.00;100738.41;5185180;28;20077;-77
2021/12/30 02:29:55;;;;;;;9.73;2.35;;;11.90;99.90;;;12.06;100.00;100733.97;5185666;28;20054;-78
2021/12/30 02:32:27;;;;;;;7.75;2.25;;;12.00;99.90;;;12.10;100.00;100730.56;5185957;28;20049;-78
2021/12/30 02:34:59;;;;;;;8.38;2.40;;;12.00;99.90;;;12.11;100.00;100737.56;5185400;28;20046;-78
2021/12/30 02:37:33;;;;;;;6.22;2.22;;;11.90;99.90;;;12.10;100.00;100740.13;5185392;28;20054;-78
2021/12/30 02:40:07;;;;;;;8.93;2.30;;;12.00;99.90;;;12.11;100.00;100747.13;5185804;28;20049;-78
2021/12/30 02:42:39;;;;;;;9.35;2.65;;;12.00;99.90;;;12.11;100.00;100748.00;5185594;28;20050;-78
2021/12/30 02:45:13;;;;;;;9.32;2.03;;;12.00;99.90;;;12.11;100.00;100740.16;5184984;28;20093;-78
2021/12/30 02:47:45;;;;;;;7.55;2.17;;;12.00;99.90;;;12.09;100.00;100744.47;5185404;28;20156;-77
2021/12/30 02:50:17;;;;;;;9.20;2.72;;;12.00;99.90;;;12.10;100.00;100740.13;5185200;28;20065;-77
2021/12/30 02:52:50;;;;;;;7.30;2.05;;;12.00;99.90;;;12.09;100.00;100723.56;5185369;28;20064;-77
2021/12/30 02:55:22;;;;;;;9.65;2.17;;;12.00;99.90;;;12.08;100.00;100729.66;5184642;28;20061;-77
2021/12/30 02:57:54;;;;;;;6.05;1.98;;;12.00;99.90;;;12.07;100.00;100732.22;5185267;28;20068;-78
2021/12/30 03:00:26;;;;;;;9.25;2.30;;;12.00;99.90;;;12.08;100.00;100724.41;5184815;28;20054;-77
2021/12/30 03:02:58;;;;;;;9.82;2.40;;;12.00;99.90;;;12.08;100.00;100728.75;5185248;28;20050;-77
2021/12/30 03:05:30;;;;;;;10.13;2.20;;;11.90;99.90;;;12.06;100.00;100731.34;5184735;28;20052;-78
2021/12/30 03:08:04;;;;;;;6.18;2.53;;;11.90;99.90;;;12.06;100.00;100741.78;5185109;28;20053;-78
2021/12/30 03:10:36;;;;;;;5.88;2.03;;;11.90;99.90;;;12.08;100.00;100742.72;5184827;28;20064;-77
2021/12/30 03:13:14;;;;;;;9.25;2.20;;;11.90;99.90;;;12.07;100.00;100756.63;5184775;28;20065;-76
2021/12/30 03:15:47;;;;;;;9.43;2.40;;;11.90;99.90;;;12.07;100.00;100764.47;5185000;28;20050;-76
2021/12/30 03:18:19;;;;;;;13.35;2.83;;;11.90;99.90;;;12.08;100.00;100758.38;5185405;28;20467;-76
2021/12/30 03:20:51;;;;;;;5.93;2.45;;;12.00;99.90;;;12.10;100.00;100751.47;5185119;28;20507;-77
2021/12/30 03:23:24;;;;;;;10.02;2.47;;;12.00;99.90;;;12.07;100.00;100748.78;5184637;28;20050;-76
2021/12/30 03:25:56;;;;;;;12.00;3.25;;;11.90;99.90;;;12.06;100.00;100760.09;5184637;28;20060;-77
2021/12/30 03:28:28;;;;;;;9.13;2.47;;;11.90;99.90;;;12.05;100.00;100750.44;5184556;28;20065;-76
2021/12/30 03:31:01;;;;;;;8.93;1.95;;;11.90;99.90;;;12.02;100.00;100753.00;5184639;28;20050;-76
2021/12/30 03:33:33;;;;;;;8.50;2.40;;;11.90;99.90;;;12.02;100.00;100757.34;5184490;28;20056;-76
2021/12/30 03:36:08;;;;;;;8.70;2.45;;;11.90;99.90;;;12.01;100.00;100756.44;5184314;28;20057;-76
2021/12/30 03:38:47;;;;;;;8.05;2.17;;;11.90;99.90;;;12.00;100.00;100762.53;5188772;28;20045;-76
2021/12/30 03:41:23;;;;;;;7.82;1.85;;;11.90;99.90;;;12.00;100.00;100769.44;5188771;28;20060;-76
2021/12/30 03:43:56;;;;;;;7.47;2.22;;;11.90;99.90;;;11.99;100.00;100773.78;5188151;28;20069;-76
2021/12/30 03:46:29;;;;;;;10.05;2.38;;;11.90;99.90;;;11.95;100.00;100761.50;5188365;28;20046;-76
2021/12/30 03:49:05;;;;;;;9.20;2.08;;;11.90;99.90;;;11.95;100.00;100767.59;5188346;28;20410;-76
2021/12/30 03:51:39;;;;;;;12.05;2.33;;;11.90;99.90;;;11.95;100.00;100766.72;5188311;28;20097;-76
2021/12/30 03:56:46;;;;;;;8.20;2.15;;;11.90;99.90;;;11.86;100.00;100759.47;5160973;28;20066;-79
2021/12/30 03:59:18;;;;;;;9.63;1.80;;;11.90;99.90;;;11.91;100.00;100764.84;5167863;28;20057;-79
2021/12/30 04:01:50;;;;;;;8.45;2.10;;;11.80;99.90;;;11.88;100.00;100780.44;5168062;28;20069;-79
2021/12/30 04:04:22;;;;;;;10.30;2.22;;;11.80;99.90;;;11.88;100.00;100775.22;5167330;28;20043;-79
2021/12/30 04:06:54;;;;;;;6.32;2.20;;;11.80;99.90;;;11.89;100.00;100777.00;5167369;28;20054;-79
2021/12/30 04:09:26;;;;;;;8.18;1.92;;;11.80;99.90;;;11.86;100.00;100777.75;5168408;28;20055;-79
2021/12/30 04:12:00;;;;;;;9.60;2.00;;;11.80;99.90;;;11.87;100.00;100783.91;5168510;28;20050;-79
2021/12/30 04:14:32;;;;;;;7.10;1.77;;;11.80;99.90;;;11.85;100.00;100777.72;5169443;28;20105;-79
2021/12/30 04:17:04;;;;;;;9.10;2.17;;;11.70;99.90;;;11.80;100.00;100772.34;5171203;28;20097;-80
2021/12/30 04:19:36;;;;;;;8.27;2.20;;;11.70;99.90;;;11.82;100.00;100764.59;5171217;28;20050;-81
2021/12/30 04:22:08;;;;;;;5.60;2.20;;;11.70;99.90;;;11.76;100.00;100770.47;5171854;28;20046;-80
2021/12/30 04:24:40;;;;;;;12.02;3.15;;;11.70;99.90;;;11.72;100.00;100768.63;5173038;28;20047;-80
2021/12/30 04:27:14;;;;;;;8.18;2.78;;;11.70;99.90;;;11.70;100.00;100767.69;5174164;28;20050;-79
2021/12/30 04:29:46;;;;;;;9.50;2.50;;;11.70;99.90;;;11.67;100.00;100768.50;5174570;28;20061;-79
2021/12/30 04:32:18;;;;;;;7.18;2.17;;;11.60;99.90;;;11.67;100.00;100768.50;5176899;28;20496;-79
2021/12/30 04:34:50;;;;;;;7.50;2.60;;;11.60;99.90;;;11.65;100.00;100772.78;5176305;28;20046;-80
2021/12/30 04:37:22;;;;;;;7.22;2.25;;;11.60;99.90;;;11.67;100.00;100776.34;5171603;28;20050;-79
2021/12/30 04:39:54;;;;;;;13.07;4.97;;;11.60;99.90;;;11.70;100.00;100770.31;5171905;28;20421;-80
2021/12/30 04:42:28;;;;;;;15.40;4.75;;;11.60;99.90;;;11.65;100.00;100767.53;5171100;28;20061;-80
2021/12/30 04:45:00;;;;;;;8.20;2.88;;;11.60;99.90;;;11.65;100.00;100772.78;5169228;28;20058;-80
2021/12/30 04:47:32;;;;;;;8.02;2.70;;;11.60;99.90;;;11.67;100.00;100780.63;5168898;28;20050;-80
2021/12/30 04:50:06;;;;;;;7.45;2.55;;;11.60;99.90;;;11.68;100.00;100774.59;5168750;28;20042;-80
2021/12/30 04:52:38;;;;;;;5.38;1.92;;;11.60;99.90;;;11.67;100.00;100780.63;5169012;28;20050;-79
2021/12/30 04:55:11;;;;;;;10.45;3.58;;;11.60;99.90;;;11.65;100.00;100775.38;5168442;28;20057;-79
2021/12/30 04:57:45;;;;;;;9.73;3.50;;;11.60;99.90;;;11.67;100.00;100778.94;5169235;28;20062;-80
2021/12/30 05:00:17;;;;;;;7.40;2.75;;;11.60;99.90;;;11.69;100.00;100779.88;5169241;28;20054;-80
2021/12/30 05:03:07;;;;;;;4.50;1.40;;;11.70;99.90;;;11.72;100.00;100779.06;5169406;28;20477;-79
2021/12/30 05:05:42;;;;;;;3.40;1.50;;;11.60;99.90;;;11.76;100.00;100780.94;5168425;28;20501;-80
2021/12/30 05:08:16;;;;;;;6.30;1.63;;;11.70;99.90;;;11.71;100.00;100777.28;5168165;28;20056;-80
2021/12/30 05:10:50;;;;;;;7.05;1.80;;;11.70;99.90;;;11.74;100.00;100784.34;5168102;28;20080;-79
2021/12/30 05:13:23;;;;;;;4.43;1.80;;;11.70;99.90;;;11.73;100.00;100799.09;5168454;28;20052;-79
2021/12/30 05:15:56;;;;;;;4.47;1.70;;;11.70;99.90;;;11.76;100.00;100793.09;5171298;28;20050;-80
2021/12/30 05:18:32;;;;;;;4.80;1.50;;;11.70;99.90;;;11.77;100.00;100787.91;5171598;28;20137;-79
2021/12/30 05:21:06;;;;;;;5.95;1.92;;;11.70;99.90;;;11.77;100.00;100781.81;5168329;28;20054;-79
2021/12/30 05:23:38;;;;;;;5.40;1.65;;;11.70;99.90;;;11.76;100.00;100785.28;5166350;28;20056;-79
2021/12/30 05:26:10;;;;;;;9.05;1.80;;;11.70;99.90;;;11.81;100.00;100797.66;5166307;28;20096;-79
2021/12/30 05:28:44;;;;;;;9.30;1.70;;;11.70;99.90;;;11.82;100.00;100803.78;5166156;28;20054;-79
2021/12/30 05:31:16;;;;;;;6.03;1.67;;;11.70;99.90;;;11.83;100.00;100797.69;5166302;28;20046;-79
2021/12/30 05:33:48;;;;;;;4.00;1.40;;;11.70;99.90;;;11.84;100.00;100800.34;5165866;28;20061;-79
2021/12/30 05:36:20;;;;;;;9.68;1.75;;;11.70;99.90;;;11.83;100.00;100795.97;5166083;28;20157;-79
2021/12/30 05:38:53;;;;;;;6.00;1.60;;;11.70;99.90;;;11.85;100.00;100806.47;5166032;28;20046;-79
2021/12/30 05:41:26;;;;;;;4.88;1.48;;;11.70;99.90;;;11.88;100.00;100803.97;5166297;28;20512;-79
2021/12/30 05:44:00;;;;;;;2.78;1.60;;;11.80;99.90;;;11.88;100.00;100801.34;5165745;28;20481;-79
2021/12/30 05:46:32;;;;;;;4.70;1.60;;;11.80;99.90;;;11.90;100.00;100804.88;5165846;28;20057;-78
2021/12/30 05:49:04;;;;;;;4.50;1.55;;;11.80;99.90;;;11.91;100.00;100806.66;5165876;28;20050;-78
2021/12/30 05:51:36;;;;;;;11.27;4.88;;;11.80;99.90;;;11.90;100.00;100813.59;5165850;28;20077;-78
2021/12/30 05:54:09;;;;;;;4.95;2.13;;;11.80;99.90;;;11.92;100.00;100809.28;5165234;28;20061;-78
2021/12/30 05:56:40;;;;;;;7.30;1.90;;;11.80;99.90;;;11.94;100.00;100819.81;5166177;28;20046;-79
2021/12/30 05:59:14;;;;;;;5.97;2.13;;;11.80;99.90;;;11.95;100.00;100812.00;5167648;28;20057;-78
2021/12/30 06:01:46;;;;;;;6.75;2.30;;;11.80;99.90;;;11.98;100.00;100812.94;5166566;28;20057;-79
2021/12/30 06:04:18;;;;;;;7.25;2.30;;;11.80;99.90;;;12.00;100.00;100822.59;5165470;28;20527;-79
2021/12/30 06:06:50;;;;;;;7.55;2.50;;;11.80;99.90;;;11.99;100.00;100820.81;5165607;28;20050;-79
2021/12/30 06:09:24;;;;;;;4.85;2.72;;;11.90;99.90;;;12.00;100.00;100820.00;5165890;28;20390;-81
2021/12/30 06:11:56;;;;;;;8.00;2.80;;;11.90;99.90;;;11.99;100.00;100820.81;5165619;28;20050;-80
2021/12/30 06:14:29;;;;;;;5.45;2.47;;;11.90;99.90;;;12.04;100.00;100823.56;5165245;28;20054;-79
2021/12/30 06:17:02;;;;;;;6.43;2.22;;;11.90;99.90;;;12.06;100.00;100828.00;5165349;28;20052;-79
2021/12/30 06:19:33;;;;;;;6.85;2.22;;;11.90;99.90;;;12.08;100.00;100828.94;5165233;28;20047;-78
2021/12/30 06:22:06;;;;;;;8.02;2.35;;;11.90;99.90;;;12.10;100.00;100831.59;5165287;28;20061;-79
2021/12/30 06:24:38;;;;;;;8.68;2.67;;;11.90;99.90;;;12.09;100.00;100838.53;5164727;28;20057;-79
2021/12/30 06:27:11;;;;;;;5.43;1.70;;;11.90;99.90;;;12.09;100.00;100848.09;5165385;28;20059;-79
2021/12/30 06:29:44;;;;;;;4.93;1.83;;;12.00;99.90;;;12.11;100.00;100846.41;5166712;28;20050;-79
2021/12/30 06:32:16;;;;;;;6.80;2.10;;;12.00;99.90;;;12.11;100.00;100856.88;5167192;28;20053;-79
2021/12/30 06:34:48;;;;;;;6.10;1.85;;;12.00;99.90;;;12.15;100.00;100867.47;5166628;28;20065;-80
2021/12/30 06:37:20;;;;;;;5.88;1.90;;;12.00;99.90;;;12.17;100.00;100872.72;5167183;28;20085;-80
2021/12/30 06:39:52;;;;;;;4.72;1.55;;;12.10;99.90;;;12.20;100.00;100865.88;5167676;28;20053;-80
2021/12/30 06:42:24;;;;;;;3.30;1.10;;;12.10;99.90;;;12.23;100.00;100868.56;5167848;28;20142;-80
2021/12/30 06:44:57;;;;;;;1.98;1.15;;;12.10;99.90;;;12.30;100.00;100863.53;5166051;28;20420;-79
2021/12/30 06:47:29;;;;;;;3.53;1.10;;;12.10;99.90;;;12.36;100.00;100868.94;5167193;28;20050;-80
2021/12/30 06:50:02;;;;;;;3.78;0.93;;;12.20;99.90;;;12.42;100.00;100875.22;5166377;28;20054;-79
2021/12/30 06:52:34;;;;;;;4.40;1.52;;;12.30;99.90;;;12.49;100.00;100876.28;5165410;28;20523;-79
2021/12/30 06:55:07;;;;;;;2.50;1.02;;;12.30;99.90;;;12.55;100.00;100871.22;5164982;28;20061;-80
2021/12/30 06:57:41;;;;;;;3.15;0.82;;;12.40;99.90;;;12.60;100.00;100869.63;5166417;28;20055;-79
2021/12/30 07:00:15;;;;;;;1.42;0.60;;;12.40;99.90;;;12.63;100.00;100877.53;5167246;28;20114;-80
2021/12/30 07:02:47;;;;;;;1.83;1.00;;;12.50;99.90;;;12.65;100.00;100878.50;5166829;28;20046;-80
2021/12/30 07:05:19;;;;;;;1.80;0.70;;;12.50;99.90;;;12.73;100.00;100883.94;5166294;28;20047;-80
2021/12/30 07:07:51;;;;;;;2.13;1.02;;;12.60;99.90;;;12.76;100.00;100882.25;5167318;28;20054;-80
2021/12/30 07:10:23;;;;;;;2.25;1.23;;;12.60;99.90;;;12.82;100.00;100885.91;5166520;28;20051;-80
2021/12/30 07:12:55;;;;;;;0.52;0.52;;;12.60;99.90;;;12.84;100.00;100874.63;5169482;28;20489;-79
2021/12/30 07:15:29;;;;;;;1.30;0.73;;;12.70;99.90;;;12.87;100.00;100876.44;5170825;28;20046;-80
2021/12/30 07:18:00;;;;;;;1.20;0.57;;;12.70;99.90;;;12.91;100.00;100883.50;5170545;28;20046;-80
2021/12/30 07:20:33;;;;;;;0.82;0.80;;;12.70;99.90;;;12.95;100.00;100883.66;5170668;28;20042;-80
2021/12/30 07:23:05;;;;;;;0.93;0.60;;;12.80;99.90;;;13.01;100.00;100889.03;5170628;28;20058;-80
2021/12/30 07:25:37;;;;;;;1.00;0.77;;;12.80;99.90;;;13.07;100.00;100882.22;5170246;28;20050;-80
2021/12/30 07:28:09;;;;;;;1.30;1.08;;;12.90;99.90;;;13.11;100.00;100884.94;5170278;28;20065;-79
2021/12/30 07:30:42;;;;;;;0.95;0.70;;;12.90;99.90;;;13.13;100.00;100892.84;5170523;28;20061;-80
2021/12/30 07:33:14;;;;;;;2.67;0.80;;;13.00;99.90;;;13.13;100.00;100890.22;5170056;28;20058;-79
2021/12/30 07:35:46;;;;;;;0.82;0.80;;;12.90;99.90;;;13.13;100.00;100887.59;5169625;28;20051;-80
2021/12/30 07:38:18;;;;;;;1.20;0.70;;;12.90;99.90;;;13.13;100.00;100891.09;5170469;28;20046;-80
2021/12/30 07:40:50;;;;;;;1.38;0.82;;;13.00;99.90;;;13.14;100.00;100899.84;5170351;28;20137;-81
2021/12/30 07:43:22;;;;;;;0.65;0.52;;;12.90;99.90;;;13.14;100.00;100907.69;5169582;28;20050;-79
2021/12/30 07:45:56;;;;;;;1.50;0.80;;;13.00;99.90;;;13.14;100.00;100911.19;5169132;28;20049;-79
2021/12/30 07:48:28;;;;;;;1.35;0.75;;;13.00;99.90;;;13.15;100.00;100912.97;5169159;28;20051;-80
2021/12/30 07:51:00;;;;;;;1.52;0.80;;;13.00;99.90;;;13.16;100.00;100912.09;5168823;28;20059;-79
2021/12/30 07:53:32;;;;;;;1.17;0.80;;;13.00;99.90;;;13.18;100.00;100915.66;5169193;28;20053;-79
2021/12/30 07:56:05;;;;;;;1.10;0.60;;;13.00;99.90;;;13.20;100.00;100927.09;5168349;28;20493;-79
2021/12/30 07:58:37;;;;;;;1.13;0.75;;;13.00;99.90;;;13.21;100.00;100930.59;5169444;28;20061;-79
2021/12/30 08:01:11;;;;;;;0.68;0.68;;;13.00;99.90;;;13.20;100.00;100932.31;5170013;28;20054;-80
2021/12/30 08:03:43;;;;;;;0.80;0.63;;;13.00;99.90;;;13.22;100.00;100934.97;5170370;28;20054;-81
2021/12/30 08:06:14;;;;;;;1.58;0.73;;;13.00;99.90;;;13.24;100.00;100943.78;5169450;28;20417;-80
2021/12/30 08:08:46;;;;;;;1.98;0.80;;;13.00;99.90;;;13.28;100.00;100945.59;5169621;28;20050;-80
2021/12/30 08:11:18;;;;;;;0.55;0.55;;;13.10;99.90;;;13.32;100.00;100951.81;5168893;28;20058;-80
2021/12/30 08:13:50;;;;;;;0.60;0.60;;;13.10;99.90;;;13.36;100.00;100964.13;5168974;28;20054;-80
2021/12/30 08:16:24;;;;;;;1.05;0.60;;;13.10;99.90;;;13.40;100.00;100960.75;5169804;28;20424;-80
2021/12/30 08:18:56;;;;;;;0.60;0.60;;;13.20;99.90;;;13.42;100.00;100961.69;5151825;28;20050;-81
2021/12/30 08:21:28;;;;;;;0.43;0.43;;;13.20;99.90;;;13.48;100.00;100964.44;5171021;28;20519;-82
2021/12/30 08:23:59;;;;;;;0.57;0.57;;;13.20;99.90;;;13.54;100.00;100964.59;5171708;28;20053;-82
2021/12/30 08:26:31;;;;;;;0.95;0.57;;;13.30;99.90;;;13.57;100.00;100967.31;5171269;28;20050;-82
2021/12/30 08:29:04;;;;;;;0.50;0.40;;;13.40;99.90;;;13.58;100.00;100976.94;5172714;28;20077;-82
2021/12/30 08:31:38;;;;;;;1.08;0.50;;;13.40;99.90;;;13.58;100.00;100971.72;5172476;28;20043;-82
2021/12/30 08:34:10;;;;;;;0.50;0.50;;;13.40;99.90;;;13.60;100.00;100977.88;5171288;28;20047;-83
2021/12/30 08:36:42;;;;;;;0.47;0.47;;;13.40;99.90;;;13.64;100.00;100984.97;5171767;28;20057;-83
2021/12/30 08:39:14;;;;;;;0.50;0.50;;;13.50;99.90;;;13.68;100.00;100988.53;5172546;28;20086;-82
2021/12/30 08:41:46;;;;;;;0.45;0.45;;;13.50;99.90;;;13.69;100.00;100991.22;5172138;28;20141;-81
2021/12/30 08:44:17;;;;;;;0.65;0.45;;;13.50;99.90;;;13.70;100.00;100998.22;5171162;28;20054;-83
2021/12/30 08:46:51;;;;;;;0.73;0.73;;;13.50;99.90;;;13.70;100.00;100998.22;5172033;28;20053;-83
2021/12/30 08:49:23;;;;;;;0.32;0.32;;;13.50;99.90;;;13.71;100.00;101002.59;5172635;28;20050;-82
2021/12/30 08:51:55;;;;;;;0.30;0.30;;;13.50;99.90;;;13.73;100.00;100998.28;5172779;28;20504;-82
2021/12/30 08:54:29;;;;;;;0.52;0.50;;;13.60;99.90;;;13.75;100.00;100996.56;5172685;28;20050;-83
2021/12/30 08:57:01;;;;;;;0.98;0.63;;;13.60;99.90;;;13.73;100.00;100995.66;5173497;28;20053;-84
2021/12/30 08:59:35;;;;;;;0.52;0.52;;;13.60;99.90;;;13.77;100.00;101000.16;5172395;28;20046;-83
2021/12/30 09:02:09;;;;;;;0.57;0.50;;;13.60;99.90;;;13.74;100.00;101013.16;5172628;28;20043;-83
2021/12/30 09:04:42;;;;;;;;;;;13.50;99.90;;;13.75;100.00;101012.28;5174276;28;20058;-83
2021/12/30 09:07:16;;;;;;;0.70;0.70;;;13.60;99.90;;;13.80;100.00;101015.94;5175062;28;20310;-83
2021/12/30 09:09:48;;;;;;;0.52;0.52;;;13.60;99.90;;;13.82;100.00;101024.72;5173873;28;20493;-84
2021/12/30 09:12:22;;;;;;;0.50;0.50;;;13.60;99.90;;;13.87;100.00;101016.09;5173652;28;20050;-81
2021/12/30 09:14:54;;;;;;;1.10;0.47;;;13.60;99.90;;;13.84;100.00;101006.44;5171710;28;20077;-84
2021/12/30 09:17:27;;;;;;;0.93;0.40;;;13.70;99.90;;;13.89;100.00;101019.63;5171254;28;20053;-83
2021/12/30 09:20:00;;;;;;;0.45;0.45;;;13.70;99.90;;;13.93;100.00;101011.88;5171717;28;20054;-84
2021/12/30 09:22:32;;;;;;;0.40;0.40;;;13.70;99.90;;;13.96;100.00;101022.44;5171816;28;20057;-83
2021/12/30 09:25:07;;;;;;;0.38;0.38;;;13.70;99.90;;;14.00;100.00;101013.78;5171207;28;20061;-85
2021/12/30 09:27:42;;;;;;;0.60;0.57;;;13.70;99.90;;;14.03;100.00;101013.88;5171708;28;20105;-83
2021/12/30 09:30:16;;;;;;;0.57;0.50;;;13.80;99.90;;;14.04;100.00;101022.63;5170806;28;20076;-83
2021/12/30 09:32:53;;;;;;;0.50;0.50;;;13.80;99.90;;;14.06;100.00;101026.16;5171230;28;20056;-85
2021/12/30 09:35:25;;;;;;;0.45;0.45;;;13.80;99.90;;;14.07;100.00;101027.94;5170617;28;20117;-84
2021/12/30 09:37:58;;;;;;;1.55;0.50;;;13.80;99.90;;;14.01;100.00;101030.41;5170916;28;20054;-81
2021/12/30 09:40:30;;;;;;;0.35;0.35;;;13.80;99.90;;;14.03;100.00;101033.97;5171341;28;20050;-84
2021/12/30 09:43:04;;;;;;;3.08;1.10;;;13.80;99.90;;;14.06;100.00;101029.69;5172249;28;20050;-85
2021/12/30 09:45:40;;;;;;;1.13;0.50;;;13.80;99.90;;;14.08;100.00;101029.69;5172428;28;20138;-83
2021/12/30 09:48:16;;;;;;;1.00;0.65;;;13.80;99.90;;;14.10;100.00;101031.53;5172453;28;20042;-83
2021/12/30 09:50:51;;;;;;;0.50;0.50;;;13.90;99.90;;;14.15;100.00;101036.91;5173235;28;20093;-84
2021/12/30 09:53:25;;;;;;;0.30;0.30;;;13.90;99.90;;;14.15;100.00;101042.13;5175486;28;20065;-84
2021/12/30 09:55:59;;;;;;;0.40;0.40;;;13.90;99.90;;;14.19;100.00;101046.59;5295670;22;20045;-72
2021/12/30 09:58:31;;;;;;;0.30;0.30;;;14.00;99.90;;;14.22;100.00;101044.06;5204444;28;20520;-69
2021/12/30 10:01:05;;;;;;;0.60;0.45;;;14.00;99.90;;;14.25;100.00;101049.34;5205508;28;20052;-69
2021/12/30 10:03:39;;;;;;;1.27;0.40;;;14.00;99.90;;;14.28;100.00;101038.97;5205441;28;20041;-72
2021/12/30 10:06:26;;;;;;;0.43;0.43;;;14.10;99.90;;;14.37;100.00;101056.63;5205082;28;20409;-72
2021/12/30 10:09:02;;;;;;;0.50;0.40;;;14.10;99.90;;;14.39;100.00;101060.16;5205982;28;20460;-71
2021/12/30 10:11:45;;;;;;;0.73;0.65;;;14.10;99.90;;;14.42;100.00;101054.13;5206543;28;20045;-73
2021/12/30 10:14:30;;;;;;;1.65;0.52;;;14.20;99.90;;;14.45;100.00;101062.06;5205851;28;20060;-72
2021/12/30 10:17:17;;;;;;;0.50;0.45;;;14.20;99.90;;;14.45;100.00;101060.31;5206216;28;20050;-72
2021/12/30 10:19:52;;;;;;;0.50;0.50;;;14.20;99.90;;;14.43;100.00;101053.28;5205221;28;20045;-71
2021/12/30 10:22:26;;;;;;;1.73;0.40;;;14.20;99.90;;;14.45;100.00;101065.56;5205010;28;20053;-72
2021/12/30 10:24:58;;;;;;;2.67;0.60;;;14.20;99.90;;;14.45;100.00;101067.31;5204996;28;20077;-72
2021/12/30 10:27:33;;;;;;;1.55;0.47;;;14.20;99.90;;;14.44;100.00;101063.78;5205000;28;20049;-72
2021/12/30 10:30:07;;;;;;;0.55;0.52;;;14.20;99.90;;;14.50;100.00;101063.09;5205714;28;20085;-72
2021/12/30 10:32:39;;;;;;;0.30;0.30;;;14.20;99.90;;;14.47;100.00;101060.38;5204930;28;20055;-71